Time;durP1;ratioP1;P1;durP2;ratioP2;P2;SDS_P1;SDS_P2;PMS_P1;PMS_P2;Temp;Humidity;BMP_temperature;BMP_pressure;BME280_temperature;BME280_humidity;BME280_pressure;Samples;Min_cycle;Max_cycle;Signal;HPM_P1;HPM_P2
2022/04/25 00:00:42;;;;;;;8.27;4.78;;;8.50;99.90;;;;;;4987492;28;20038;-80
2022/04/25 00:03:24;;;;;;;6.95;4.13;;;8.50;99.90;;;;;;4955902;28;20479;-79
2022/04/25 00:05:56;;;;;;;9.00;5.20;;;8.40;99.90;;;;;;4970885;28;21260;-80
2022/04/25 00:08:25;;;;;;;9.00;4.80;;;8.40;99.90;;;;;;4957657;28;20061;-80
2022/04/25 00:10:56;;;;;;;7.45;4.90;;;8.40;99.90;;;;;;4953716;28;20101;-80
2022/04/25 00:13:32;;;;;;;13.65;6.25;;;8.40;99.90;;;;;;4934575;28;20042;-81
2022/04/25 00:16:05;;;;;;;11.05;5.00;;;8.30;99.90;;;;;;4957014;28;20030;-81
2022/04/25 00:18:32;;;;;;;8.00;5.03;;;8.30;99.90;;;;;;4968842;28;20037;-81
2022/04/25 00:21:06;;;;;;;7.45;4.00;;;8.30;99.90;;;;;;4971621;28;20038;-80
2022/04/25 00:23:32;;;;;;;8.48;5.80;;;8.30;99.90;;;;;;4975453;28;20027;-81
2022/04/25 00:25:59;;;;;;;9.90;5.30;;;8.20;99.90;;;;;;4940243;28;20141;-81
2022/04/25 00:28:29;;;;;;;9.45;5.00;;;8.20;99.90;;;;;;4956941;28;20042;-81
2022/04/25 00:34:11;;;;;;;9.38;6.20;;;8.20;99.90;;;;;;4944573;28;20042;-81
2022/04/25 00:36:41;;;;;;;9.25;5.65;;;8.10;99.90;;;;;;4923095;28;20042;-82
2022/04/25 00:39:08;;;;;;;11.23;5.95;;;8.10;99.90;;;;;;4972501;28;20062;-82
2022/04/25 00:41:58;;;;;;;9.02;5.85;;;8.10;99.90;;;;;;4971846;28;20035;-82
2022/04/25 00:44:32;;;;;;;9.73;6.70;;;8.10;99.90;;;;;;4929018;28;20055;-82
2022/04/25 00:47:02;;;;;;;9.57;5.85;;;8.10;99.90;;;;;;4981297;28;20033;-81
2022/04/25 00:49:36;;;;;;;12.57;6.35;;;8.10;99.90;;;;;;4962127;28;20046;-81
2022/04/25 00:52:03;;;;;;;9.75;5.82;;;8.00;99.90;;;;;;4973915;28;20034;-81
2022/04/25 00:54:33;;;;;;;12.20;5.95;;;8.00;99.90;;;;;;4974210;28;20040;-82
2022/04/25 00:57:08;;;;;;;10.27;5.88;;;8.00;99.90;;;;;;4950585;28;20494;-82
2022/04/25 00:59:50;;;;;;;9.18;5.43;;;7.90;99.90;;;;;;4942702;28;20054;-82
2022/04/25 01:02:39;;;;;;;8.15;5.13;;;7.90;99.90;;;;;;4970302;28;20050;-82
2022/04/25 01:05:10;;;;;;;8.55;5.13;;;7.90;99.90;;;;;;4970671;28;20058;-82
2022/04/25 01:07:41;;;;;;;9.57;5.28;;;7.90;99.90;;;;;;4962480;28;20034;-82
2022/04/25 01:10:10;;;;;;;9.93;6.30;;;7.90;99.90;;;;;;4930885;28;20035;-81
2022/04/25 01:12:43;;;;;;;8.43;5.43;;;7.90;99.90;;;;;;4989232;28;20038;-82
2022/04/25 01:15:20;;;;;;;10.02;5.60;;;7.90;99.90;;;;;;4970445;28;20035;-82
2022/04/25 01:18:02;;;;;;;10.05;6.25;;;7.90;99.90;;;;;;4955040;28;20045;-82
2022/04/25 01:20:28;;;;;;;7.35;5.07;;;7.90;99.90;;;;;;4964807;28;20057;-81
2022/04/25 01:28:51;;;;;;;8.07;5.57;;;7.90;99.90;;;;;;4970906;28;20035;-81
2022/04/25 01:31:37;;;;;;;12.32;6.43;;;7.90;99.90;;;;;;4985559;28;20038;-82
2022/04/25 01:34:52;;;;;;;8.63;5.88;;;7.80;99.90;;;;;;4972044;28;20057;-81
2022/04/25 01:37:20;;;;;;;7.80;5.50;;;7.80;99.90;;;;;;4954750;28;20050;-81
2022/04/25 01:40:10;;;;;;;10.27;5.93;;;7.80;99.90;;;;;;4971493;28;20035;-81
2022/04/25 01:42:37;;;;;;;8.10;6.05;;;7.80;99.90;;;;;;4969975;28;20030;-81
2022/04/25 01:45:13;;;;;;;8.68;5.00;;;7.70;99.90;;;;;;4968555;28;20382;-81
2022/04/25 01:47:40;;;;;;;8.45;5.38;;;7.70;99.90;;;;;;4954099;28;20057;-82
2022/04/25 01:50:08;;;;;;;8.23;5.88;;;7.70;99.90;;;;;;4979637;28;20043;-81
2022/04/25 01:52:39;;;;;;;10.63;5.95;;;7.70;99.90;;;;;;4970044;28;20061;-81
2022/04/25 01:55:17;;;;;;;11.57;6.05;;;7.70;99.90;;;;;;4969363;28;20394;-82
2022/04/25 01:57:45;;;;;;;8.95;6.55;;;7.70;99.90;;;;;;4984278;28;20383;-82
2022/04/25 02:00:21;;;;;;;8.15;5.80;;;7.60;99.90;;;;;;4968264;28;20050;-81
2022/04/25 02:05:42;;;;;;;12.02;7.13;;;7.60;99.90;;;;;;4946935;28;20053;-81
2022/04/25 02:08:18;;;;;;;10.25;5.88;;;7.60;99.90;;;;;;4969851;28;20049;-81
2022/04/25 02:11:21;;;;;;;13.13;6.90;;;7.50;99.90;;;;;;4936647;28;20050;-81
2022/04/25 02:13:54;;;;;;;10.60;7.05;;;7.50;99.90;;;;;;4953325;28;20050;-81
2022/04/25 02:16:25;;;;;;;9.70;7.03;;;7.40;99.90;;;;;;4952681;28;20608;-81
2022/04/25 02:18:54;;;;;;;12.23;5.95;;;7.40;99.90;;;;;;4979864;28;20043;-81
2022/04/25 02:21:22;;;;;;;11.43;5.60;;;7.40;99.90;;;;;;4978349;28;20030;-80
2022/04/25 02:23:49;;;;;;;9.57;5.82;;;7.40;99.90;;;;;;4985775;28;20038;-81
2022/04/25 02:26:15;;;;;;;13.85;9.45;;;7.40;99.90;;;;;;4952152;28;20045;-81
2022/04/25 02:28:42;;;;;;;10.68;6.47;;;7.40;99.90;;;;;;4954732;28;20494;-81
2022/04/25 02:31:09;;;;;;;10.02;6.15;;;7.30;99.90;;;;;;4952559;28;20505;-81
2022/04/25 02:33:36;;;;;;;10.00;6.78;;;7.30;99.90;;;;;;4923493;28;20657;-81
2022/04/25 02:36:06;;;;;;;9.77;6.00;;;7.30;99.90;;;;;;4943573;28;20144;-81
2022/04/25 02:38:37;;;;;;;7.95;5.95;;;7.30;99.90;;;;;;4969671;28;20598;-81
2022/04/25 02:41:06;;;;;;;19.38;9.23;;;7.30;99.90;;;;;;4936958;28;20034;-81
2022/04/25 02:43:35;;;;;;;15.52;8.55;;;7.30;99.90;;;;;;4930374;28;20042;-81
2022/04/25 02:46:04;;;;;;;9.57;6.18;;;7.20;99.90;;;;;;4933840;28;20034;-81
2022/04/25 02:48:35;;;;;;;10.43;6.47;;;7.20;99.90;;;;;;4952550;28;20058;-81
2022/04/25 02:51:03;;;;;;;10.95;6.72;;;7.20;99.90;;;;;;4937542;28;20030;-81
2022/04/25 02:53:30;;;;;;;10.57;6.85;;;7.20;99.90;;;;;;4938780;28;20043;-81
2022/04/25 02:55:58;;;;;;;10.60;7.15;;;7.10;99.90;;;;;;4943815;28;20033;-82
2022/04/25 02:58:25;;;;;;;10.23;6.93;;;7.10;99.90;;;;;;4955932;28;20038;-81
2022/04/25 03:00:52;;;;;;;11.52;6.38;;;7.10;99.90;;;;;;4935944;28;21129;-81
2022/04/25 03:03:20;;;;;;;10.07;6.63;;;7.10;99.90;;;;;;4956008;28;20034;-82
2022/04/25 03:05:48;;;;;;;10.40;7.00;;;7.10;99.90;;;;;;4969495;28;20068;-82
2022/04/25 03:08:18;;;;;;;11.57;7.07;;;7.10;99.90;;;;;;4971460;28;20042;-81
2022/04/25 03:10:47;;;;;;;10.32;7.32;;;7.10;99.90;;;;;;4970526;28;20026;-82
2022/04/25 03:13:15;;;;;;;10.05;6.82;;;7.10;99.90;;;;;;4943534;28;20042;-82
2022/04/25 03:15:43;;;;;;;11.63;6.72;;;7.10;99.90;;;;;;4942864;28;20034;-80
2022/04/25 03:18:11;;;;;;;13.73;7.82;;;7.10;99.90;;;;;;4965288;28;20034;-81
2022/04/25 03:23:51;;;;;;;14.23;8.35;;;7.20;99.90;;;;;;4946122;28;20497;-82
2022/04/25 03:26:22;;;;;;;10.93;7.18;;;7.20;99.90;;;;;;4946881;28;20019;-82
2022/04/25 03:29:01;;;;;;;12.75;8.25;;;7.20;99.90;;;;;;4968853;28;20046;-82
2022/04/25 03:31:31;;;;;;;15.77;9.63;;;7.30;99.90;;;;;;4983502;28;20042;-82
2022/04/25 03:34:05;;;;;;;12.18;9.20;;;7.30;99.90;;;;;;4987048;28;20030;-83
2022/04/25 03:39:53;;;;;;;16.52;11.52;;;7.40;99.90;;;;;;4959044;28;20139;-83
2022/04/25 03:42:19;;;;;;;19.10;11.05;;;7.40;99.90;;;;;;4984423;28;20042;-82
2022/04/25 03:44:46;;;;;;;13.30;8.55;;;7.40;99.90;;;;;;4950738;28;20494;-82
2022/04/25 03:47:21;;;;;;;15.43;10.87;;;7.50;99.90;;;;;;4979880;28;20052;-82
2022/04/25 03:50:00;;;;;;;19.95;10.77;;;7.60;99.90;;;;;;4980873;28;20047;-82
2022/04/25 03:52:47;;;;;;;10.93;8.55;;;7.60;99.90;;;;;;4989607;28;20042;-82
2022/04/25 03:58:15;;;;;;;16.65;10.07;;;7.80;99.90;;;;;;4968115;28;20045;-82
2022/04/25 04:00:48;;;;;;;14.43;10.45;;;7.80;99.90;;;;;;4982994;28;20047;-82
2022/04/25 04:03:46;;;;;;;18.23;12.40;;;7.80;99.90;;;;;;4954987;28;23277;-81
2022/04/25 04:06:27;;;;;;;18.65;10.10;;;7.90;99.90;;;;;;4986588;28;20073;-82
2022/04/25 04:11:55;;;;;;;15.05;10.57;;;8.00;99.90;;;;;;4986592;28;20025;-82
2022/04/25 04:14:27;;;;;;;18.17;10.65;;;8.10;99.90;;;;;;4958450;28;20031;-81
2022/04/25 04:17:31;;;;;;;19.15;12.82;;;8.10;99.90;;;;;;4943129;28;20041;-81
2022/04/25 04:19:58;;;;;;;16.52;12.10;;;8.10;99.90;;;;;;4981133;28;20049;-81
2022/04/25 04:22:29;;;;;;;19.38;13.93;;;8.20;99.90;;;;;;4968754;28;20042;-81
2022/04/25 04:25:05;;;;;;;20.20;14.35;;;8.20;99.90;;;;;;4969388;28;20037;-81
2022/04/25 04:27:32;;;;;;;17.52;13.18;;;8.20;99.90;;;;;;4970337;28;20505;-82
2022/04/25 04:30:07;;;;;;;24.85;15.95;;;8.30;99.90;;;;;;4961813;28;20034;-83
2022/04/25 04:32:34;;;;;;;21.75;13.90;;;8.30;99.90;;;;;;4966099;28;20521;-84
2022/04/25 04:35:02;;;;;;;20.38;14.48;;;8.30;99.90;;;;;;4960091;28;20482;-83
2022/04/25 04:37:29;;;;;;;20.45;15.32;;;8.30;99.90;;;;;;4968902;28;20482;-83
2022/04/25 04:42:41;;;;;;;16.17;11.57;;;8.40;99.90;;;;;;4954390;28;20042;-85
2022/04/25 04:45:08;;;;;;;17.05;12.18;;;8.40;99.90;;;;;;4923719;28;20516;-85
2022/04/25 04:47:35;;;;;;;25.23;15.93;;;8.40;99.90;;;;;;4969320;28;20153;-84
2022/04/25 04:50:07;;;;;;;21.50;15.10;;;8.50;99.90;;;;;;4975297;28;20381;-78
2022/04/25 04:52:34;;;;;;;19.45;14.20;;;8.50;99.90;;;;;;4925786;28;20035;-83
2022/04/25 04:55:00;;;;;;;41.33;26.63;;;8.50;99.90;;;;;;4937017;28;20034;-85
2022/04/25 04:57:27;;;;;;;24.38;15.93;;;8.50;99.90;;;;;;4924846;28;20038;-85
2022/04/25 04:59:53;;;;;;;18.90;13.07;;;8.60;99.90;;;;;;4947578;28;20038;-86
2022/04/25 05:02:20;;;;;;;17.92;13.18;;;8.60;99.90;;;;;;4928576;28;20031;-85
2022/04/25 05:04:47;;;;;;;17.92;11.07;;;8.60;99.90;;;;;;4963160;28;20061;-81
2022/04/25 05:07:16;;;;;;;17.15;12.70;;;8.60;99.90;;;;;;4927410;28;20041;-86
2022/04/25 05:09:43;;;;;;;25.67;14.10;;;8.60;99.90;;;;;;4944935;28;20486;-79
2022/04/25 05:12:09;;;;;;;19.02;13.43;;;8.60;99.90;;;;;;4979353;28;20018;-84
2022/04/25 05:14:36;;;;;;;56.55;32.78;;;8.60;99.90;;;;;;4921999;28;20034;-84
2022/04/25 05:17:03;;;;;;;31.48;16.92;;;8.60;99.90;;;;;;4953087;28;20049;-83
2022/04/25 05:19:48;;;;;;;19.98;14.45;;;8.70;99.90;;;;;;4952192;28;20045;-83
2022/04/25 05:22:19;;;;;;;20.10;14.95;;;8.70;99.90;;;;;;4968511;28;20030;-83
2022/04/25 05:25:06;;;;;;;25.23;14.88;;;8.70;99.90;;;;;;4947878;28;20035;-82
2022/04/25 05:27:42;;;;;;;20.00;13.80;;;8.70;99.90;;;;;;4928099;29;20048;-83
2022/04/25 05:30:19;;;;;;;19.38;14.02;;;8.70;99.90;;;;;;4925607;29;20047;-83
2022/04/25 05:32:57;;;;;;;22.92;16.98;;;8.70;99.90;;;;;;4911373;29;20890;-87
2022/04/25 05:35:37;;;;;;;19.33;14.52;;;8.70;99.90;;;;;;4903109;29;20039;-79
2022/04/25 05:38:10;;;;;;;25.00;16.73;;;8.70;99.90;;;;;;4923911;28;20495;-84
2022/04/25 05:40:44;;;;;;;19.63;16.05;;;8.70;99.90;;;;;;4907760;29;20031;-78
2022/04/25 05:43:12;;;;;;;19.70;15.18;;;8.70;99.90;;;;;;4929094;28;20048;-84
2022/04/25 05:45:56;;;;;;;20.20;14.93;;;8.70;99.90;;;;;;4886615;29;20042;-86
2022/04/25 05:54:12;;;;;;;28.45;21.92;;;8.80;99.90;;;;;;4927303;29;20055;-85
2022/04/25 05:56:39;;;;;;;20.00;15.50;;;8.80;99.90;;;;;;4893049;29;20094;-84
2022/04/25 05:59:10;;;;;;;23.15;16.05;;;8.80;99.90;;;;;;4949673;28;20045;-85
2022/04/25 06:01:53;;;;;;;24.00;15.55;;;8.80;99.90;;;;;;4938885;28;20022;-85
2022/04/25 06:04:27;;;;;;;23.27;15.98;;;8.90;99.90;;;;;;4952663;28;20065;-86
2022/04/25 06:06:57;;;;;;;24.70;20.05;;;8.90;99.90;;;;;;4981977;28;20046;-81
2022/04/25 06:09:48;;;;;;;20.90;16.48;;;9.00;99.90;;;;;;4951203;28;20037;-85
2022/04/25 06:12:24;;;;;;;22.83;18.20;;;9.00;99.90;;;;;;4969794;28;20072;-82
2022/04/25 06:14:56;;;;;;;24.17;17.60;;;9.00;99.90;;;;;;4962399;28;20048;-84
2022/04/25 06:17:35;;;;;;;22.40;18.23;;;9.10;99.90;;;;;;4937535;28;20053;-83
2022/04/25 06:20:18;;;;;;;18.98;15.45;;;9.20;99.90;;;;;;4943709;28;20027;-83
2022/04/25 06:22:58;;;;;;;24.98;19.70;;;9.20;99.90;;;;;;4966504;28;20027;-83
2022/04/25 06:25:30;;;;;;;33.97;23.05;;;9.30;99.90;;;;;;4968645;28;20030;-83
2022/04/25 06:28:10;;;;;;;29.70;20.88;;;9.30;99.90;;;;;;4969067;28;20486;-82
2022/04/25 06:30:40;;;;;;;28.60;20.33;;;9.40;99.90;;;;;;4984593;28;20030;-83
2022/04/25 06:33:07;;;;;;;19.45;15.15;;;9.50;99.90;;;;;;4955377;28;20038;-84
2022/04/25 06:35:33;;;;;;;24.23;16.90;;;9.50;99.90;;;;;;4955921;28;20038;-79
2022/04/25 06:38:08;;;;;;;23.13;17.30;;;9.50;99.90;;;;;;4969186;28;20054;-83
2022/04/25 06:40:45;;;;;;;22.60;17.33;;;9.50;99.90;;;;;;4968507;28;20023;-82
2022/04/25 06:43:25;;;;;;;18.83;16.17;;;9.50;99.90;;;;;;4988367;28;20285;-81
2022/04/25 06:46:12;;;;;;;21.20;16.73;;;9.50;99.90;;;;;;4951802;28;20023;-82
2022/04/25 06:49:19;;;;;;;23.20;18.10;;;9.50;99.90;;;;;;4972079;28;20633;-82
2022/04/25 06:51:28;;;;;;;22.58;14.85;;;9.50;99.90;;;;;;4945049;28;20030;-82
2022/04/25 06:54:08;;;;;;;23.02;16.77;;;9.40;99.90;;;;;;4946859;28;20049;-82
2022/04/25 06:56:36;;;;;;;28.42;18.85;;;9.40;99.90;;;;;;4977462;28;20031;-80
2022/04/25 06:59:06;;;;;;;20.45;16.33;;;9.40;99.90;;;;;;4937175;28;20401;-83
2022/04/25 07:01:36;;;;;;;32.17;21.33;;;9.30;99.90;;;;;;4962050;28;20443;-81
2022/04/25 07:04:08;;;;;;;29.20;21.27;;;9.20;99.90;;;;;;4937929;28;20027;-81
2022/04/25 07:06:41;;;;;;;22.40;16.77;;;9.10;99.90;;;;;;4973848;28;20043;-81
2022/04/25 07:09:12;;;;;;;27.52;19.20;;;9.00;99.90;;;;;;4957616;28;20106;-80
2022/04/25 07:11:43;;;;;;;25.52;19.55;;;9.00;99.90;;;;;;4947515;28;20030;-81
2022/04/25 07:14:15;;;;;;;28.23;20.40;;;8.90;99.90;;;;;;4969117;28;20046;-81
2022/04/25 07:16:48;;;;;;;26.83;20.23;;;8.80;99.90;;;;;;4976899;28;20381;-80
2022/04/25 07:19:15;;;;;;;24.67;17.00;;;8.70;99.90;;;;;;4974026;28;20034;-79
2022/04/25 07:29:59;;;;;;;28.52;20.67;;;8.50;99.90;;;;;;4964152;28;20466;-79
2022/04/25 07:32:26;;;;;;;26.20;20.77;;;8.50;99.90;;;;;;4951364;28;20034;-79
2022/04/25 07:34:52;;;;;;;23.90;19.30;;;8.50;99.90;;;;;;4936239;28;20045;-79
2022/04/25 07:37:22;;;;;;;25.67;19.52;;;8.50;99.90;;;;;;4963983;28;20042;-80
2022/04/25 07:39:49;;;;;;;25.02;18.75;;;8.50;99.90;;;;;;4964114;28;20045;-79
2022/04/25 07:42:18;;;;;;;27.50;20.05;;;8.50;99.90;;;;;;4946556;28;20370;-80
2022/04/25 07:44:46;;;;;;;31.27;22.00;;;8.50;99.90;;;;;;4984380;28;20014;-81
2022/04/25 07:47:13;;;;;;;29.63;20.85;;;8.40;99.90;;;;;;4961714;28;20027;-82
2022/04/25 07:49:40;;;;;;;26.63;18.80;;;8.40;99.90;;;;;;4932617;28;21686;-82
2022/04/25 07:52:08;;;;;;;33.42;22.42;;;8.40;99.90;;;;;;4942251;28;20031;-79
2022/04/25 07:54:34;;;;;;;28.67;22.38;;;8.40;99.90;;;;;;4963565;28;20031;-79
2022/04/25 07:57:03;;;;;;;26.27;20.27;;;8.40;99.90;;;;;;4935619;28;20030;-80
2022/04/25 07:59:30;;;;;;;27.00;20.70;;;8.50;99.90;;;;;;4948205;28;20508;-79
2022/04/25 08:01:56;;;;;;;33.50;23.83;;;8.50;99.90;;;;;;4953371;28;20038;-80
2022/04/25 08:04:23;;;;;;;29.30;21.77;;;8.60;99.90;;;;;;4984448;28;20035;-81
2022/04/25 08:06:49;;;;;;;28.92;21.80;;;8.70;99.90;;;;;;4935282;28;20043;-80
2022/04/25 08:09:16;;;;;;;31.92;22.02;;;8.70;99.90;;;;;;4946131;28;20041;-79
2022/04/25 08:11:43;;;;;;;37.08;25.10;;;8.80;99.90;;;;;;4947430;28;20046;-77
2022/04/25 08:19:41;;;;;;;30.67;22.02;;;9.00;99.90;;;;;;4966340;28;20058;-76
2022/04/25 08:22:09;;;;;;;36.13;23.00;;;9.10;99.90;;;;;;4922104;28;20030;-76
2022/04/25 08:24:36;;;;;;;41.33;26.88;;;9.20;99.90;;;;;;4953459;28;20347;-76
2022/04/25 08:27:05;;;;;;;33.28;24.70;;;9.20;99.90;;;;;;4918832;28;20039;-77
2022/04/25 08:29:33;;;;;;;37.20;25.70;;;9.20;99.90;;;;;;4941492;28;20045;-76
2022/04/25 08:32:00;;;;;;;38.17;25.63;;;9.20;99.90;;;;;;4944501;28;20060;-77
2022/04/25 08:34:26;;;;;;;34.50;23.17;;;9.10;99.90;;;;;;4969350;28;20026;-76
2022/04/25 08:36:53;;;;;;;35.15;25.23;;;9.10;99.90;;;;;;4952587;28;20035;-76
2022/04/25 08:39:19;;;;;;;34.03;23.80;;;9.20;99.90;;;;;;4938752;28;20057;-76
2022/04/25 08:41:50;;;;;;;29.63;22.30;;;9.10;99.90;;;;;;4950110;28;20038;-76
2022/04/25 08:44:17;;;;;;;31.58;21.00;;;9.20;99.90;;;;;;4962827;28;20034;-78
2022/04/25 08:46:49;;;;;;;35.55;23.02;;;9.20;99.90;;;;;;4943337;28;20034;-79
2022/04/25 08:49:20;;;;;;;31.65;23.25;;;9.30;99.90;;;;;;4932483;28;20053;-77
2022/04/25 08:51:49;;;;;;;35.88;23.67;;;9.30;99.90;;;;;;4962666;28;20030;-78
2022/04/25 08:54:16;;;;;;;31.00;22.00;;;9.40;99.90;;;;;;4945806;28;20049;-77
2022/04/25 08:56:43;;;;;;;45.47;29.48;;;9.50;99.90;;;;;;4963718;28;20023;-76
2022/04/25 08:59:10;;;;;;;33.78;24.73;;;9.60;99.90;;;;;;4941437;28;20057;-77
2022/04/25 09:01:40;;;;;;;30.08;21.63;;;9.60;99.90;;;;;;4961886;28;20141;-78
2022/04/25 09:04:06;;;;;;;34.38;23.05;;;9.70;99.90;;;;;;4932018;28;20018;-78
2022/04/25 09:06:33;;;;;;;35.28;24.75;;;9.70;99.90;;;;;;4961550;28;20041;-78
2022/04/25 09:09:00;;;;;;;29.92;21.65;;;9.80;99.90;;;;;;4951049;28;20046;-78
2022/04/25 09:14:12;;;;;;;35.17;24.45;;;10.20;99.90;;;;;;4953716;28;20034;-78
2022/04/25 09:16:39;;;;;;;33.78;22.90;;;10.30;99.90;;;;;;4948581;28;20046;-78
2022/04/25 09:19:06;;;;;;;31.00;22.23;;;10.30;99.90;;;;;;4942703;28;20502;-78
2022/04/25 09:21:48;;;;;;;33.08;22.88;;;10.30;99.90;;;;;;4957849;28;20323;-78
2022/04/25 09:24:34;;;;;;;37.15;24.10;;;10.30;99.90;;;;;;4974984;28;20018;-77
2022/04/25 09:27:13;;;;;;;28.90;21.15;;;10.30;99.90;;;;;;4975799;28;20356;-78
2022/04/25 09:29:42;;;;;;;29.45;20.60;;;10.30;99.90;;;;;;4978534;28;20038;-79
2022/04/25 09:32:30;;;;;;;30.75;20.75;;;10.40;99.90;;;;;;4975343;28;20021;-79
2022/04/25 09:35:24;;;;;;;35.00;23.35;;;10.50;99.90;;;;;;4963117;28;20054;-78
2022/04/25 09:37:51;;;;;;;27.58;21.45;;;10.60;99.90;;;;;;4961788;28;20046;-79
2022/04/25 09:40:31;;;;;;;31.98;23.85;;;10.60;99.90;;;;;;4981049;28;20038;-78
2022/04/25 09:43:05;;;;;;;37.10;27.02;;;10.50;99.90;;;;;;4971234;28;20390;-79
2022/04/25 09:45:35;;;;;;;37.35;23.75;;;10.50;99.90;;;;;;4982685;28;20049;-81
2022/04/25 09:48:01;;;;;;;29.52;22.55;;;10.50;99.90;;;;;;4943855;28;20034;-77
2022/04/25 09:50:38;;;;;;;31.35;21.27;;;10.50;99.90;;;;;;4980040;28;20024;-78
2022/04/25 09:53:08;;;;;;;28.67;21.60;;;10.50;99.90;;;;;;4963840;28;20478;-77
2022/04/25 09:55:39;;;;;;;28.63;20.13;;;10.50;99.90;;;;;;4963839;28;20042;-78
2022/04/25 09:58:30;;;;;;;20.95;16.75;;;10.50;99.90;;;;;;4951813;28;20046;-76
2022/04/25 10:01:11;;;;;;;27.55;18.85;;;10.60;99.90;;;;;;4944101;28;20038;-76
2022/04/25 10:03:42;;;;;;;24.27;18.15;;;10.60;99.90;;;;;;4979761;28;20046;-76
2022/04/25 10:06:10;;;;;;;29.05;19.27;;;10.60;99.90;;;;;;4983265;28;20043;-76
2022/04/25 10:08:39;;;;;;;23.42;19.15;;;10.60;99.90;;;;;;4950991;28;20398;-76
2022/04/25 10:11:07;;;;;;;31.23;21.27;;;10.70;99.90;;;;;;4982528;28;21313;-76
2022/04/25 10:13:40;;;;;;;26.73;19.58;;;10.70;99.90;;;;;;4956163;28;20042;-76
2022/04/25 10:16:28;;;;;;;26.98;20.23;;;10.60;99.90;;;;;;4996942;28;20035;-76
2022/04/25 10:18:57;;;;;;;26.70;19.48;;;10.60;99.90;;;;;;4975147;28;20050;-77
2022/04/25 10:21:25;;;;;;;25.15;19.40;;;10.60;99.90;;;;;;4965470;28;20026;-76
2022/04/25 10:23:53;;;;;;;30.65;20.45;;;10.60;99.90;;;;;;4954929;28;20026;-76
2022/04/25 10:26:29;;;;;;;29.35;21.35;;;10.50;99.90;;;;;;4941997;28;20023;-77
2022/04/25 10:28:56;;;;;;;28.50;19.67;;;10.50;99.90;;;;;;4970084;28;20382;-77
2022/04/25 10:31:42;;;;;;;25.17;17.55;;;10.50;99.90;;;;;;4947018;28;20041;-76
2022/04/25 10:34:10;;;;;;;22.20;17.00;;;10.60;99.90;;;;;;4967569;28;20592;-76
2022/04/25 10:36:37;;;;;;;24.23;17.00;;;10.70;99.90;;;;;;4933566;28;20061;-76
2022/04/25 10:39:14;;;;;;;24.25;18.15;;;10.70;99.90;;;;;;4967800;28;20382;-76
2022/04/25 10:44:28;;;;;;;24.52;17.20;;;10.70;99.90;;;;;;4984217;28;20030;-77
2022/04/25 10:47:04;;;;;;;21.60;16.48;;;10.70;99.90;;;;;;4950729;28;20054;-76
2022/04/25 10:49:35;;;;;;;22.13;16.27;;;10.70;99.90;;;;;;4951852;28;20042;-77
2022/04/25 10:52:03;;;;;;;21.42;15.05;;;10.70;99.90;;;;;;4937056;28;20141;-77
2022/04/25 10:54:49;;;;;;;22.05;15.05;;;10.80;99.90;;;;;;4935752;28;20022;-76
2022/04/25 10:57:17;;;;;;;22.90;16.70;;;11.00;99.90;;;;;;4960403;28;20041;-77
2022/04/25 10:59:44;;;;;;;18.88;14.70;;;11.10;99.90;;;;;;4942853;28;20043;-76
2022/04/25 11:02:25;;;;;;;18.42;14.23;;;11.20;99.90;;;;;;4950053;28;20023;-77
2022/04/25 11:05:10;;;;;;;18.98;14.57;;;11.30;99.90;;;;;;4953880;28;20026;-76
2022/04/25 11:07:41;;;;;;;14.98;13.18;;;11.40;99.90;;;;;;4936400;28;20085;-84
2022/04/25 11:10:28;;;;;;;17.08;13.32;;;11.50;99.90;;;;;;4914077;28;20062;-84
2022/04/25 11:12:59;;;;;;;16.95;13.80;;;11.60;99.90;;;;;;4937602;28;20058;-85
2022/04/25 11:15:42;;;;;;;16.95;13.07;;;11.60;99.90;;;;;;4921521;28;20049;-84
2022/04/25 11:18:30;;;;;;;;;;;11.60;99.90;;;;;;4940309;28;20035;-84
2022/04/25 11:21:55;;;;;;;14.23;10.77;;;11.60;99.90;;;;;;4929404;28;19926;-84
2022/04/25 11:24:42;;;;;;;19.05;13.55;;;11.70;99.90;;;;;;4850496;28;20055;-82
2022/04/25 11:27:18;;;;;;;15.40;13.40;;;11.70;99.90;;;;;;4903142;28;20050;-83
2022/04/25 11:30:06;;;;;;;18.85;13.18;;;11.80;99.90;;;;;;4919101;28;20043;-86
2022/04/25 11:32:47;;;;;;;19.08;13.32;;;11.80;99.90;;;;;;4916457;29;20044;-84
2022/04/25 11:35:52;;;;;;;18.63;14.00;;;11.90;99.90;;;;;;4931548;29;20030;-85
2022/04/25 11:39:50;;;;;;;23.35;15.40;;;11.80;99.90;;;;;;4913705;29;20031;-84
2022/04/25 11:41:22;;;;;;;20.85;13.52;;;11.70;99.90;;;;;;4912410;29;20062;-84
2022/04/25 11:43:49;;;;;;;15.80;12.48;;;11.60;99.90;;;;;;4911566;29;20124;-83
2022/04/25 11:46:22;;;;;;;;;;;11.50;99.90;;;;;;4928236;29;20032;-83
2022/04/25 11:49:29;;;;;;;18.33;12.65;;;11.50;99.90;;;;;;4897769;29;19915;-84
2022/04/25 11:51:58;;;;;;;18.90;12.95;;;11.50;99.90;;;;;;4874746;29;20408;-84
2022/04/25 11:54:48;;;;;;;20.48;15.48;;;11.60;99.90;;;;;;4892383;29;20060;-82
2022/04/25 11:57:17;;;;;;;20.65;15.88;;;11.70;99.90;;;;;;4893136;29;20154;-84
2022/04/25 12:00:21;;;;;;;16.95;13.15;;;11.70;99.90;;;;;;4870683;29;20045;-83
2022/04/25 12:03:12;;;;;;;18.95;14.35;;;11.80;99.90;;;;;;4889436;29;20051;-83
2022/04/25 12:05:47;;;;;;;18.88;13.23;;;11.80;99.90;;;;;;4922620;28;20043;-84
2022/04/25 12:18:11;;;;;;;18.25;13.88;;;12.10;99.90;;;;;;4946394;28;20043;-83
2022/04/25 12:20:40;;;;;;;17.80;11.73;;;12.10;99.90;;;;;;4912236;29;20460;-82
2022/04/25 12:23:48;;;;;;;16.85;12.20;;;12.10;99.90;;;;;;4947580;28;20023;-83
2022/04/25 12:26:21;;;;;;;16.55;11.52;;;12.10;99.90;;;;;;4950025;28;20508;-80
2022/04/25 12:28:52;;;;;;;17.55;12.93;;;12.20;99.90;;;;;;4986065;28;20316;-80
2022/04/25 12:31:19;;;;;;;16.85;12.38;;;12.40;99.90;;;;;;4967571;28;20397;-81
2022/04/25 12:33:54;;;;;;;18.23;12.85;;;12.50;99.90;;;;;;4984626;28;20026;-81
2022/04/25 12:36:29;;;;;;;18.13;13.38;;;12.60;99.90;;;;;;4933450;28;20034;-81
2022/04/25 12:39:10;;;;;;;18.33;12.57;;;12.60;99.90;;;;;;4951190;28;20031;-81
2022/04/25 12:41:39;;;;;;;17.23;12.07;;;12.40;99.90;;;;;;4965082;28;20430;-81
2022/04/25 12:44:18;;;;;;;16.10;11.80;;;12.40;99.90;;;;;;4968863;28;20038;-81
2022/04/25 12:47:10;;;;;;;16.40;12.50;;;12.30;99.90;;;;;;4966410;28;20064;-81
2022/04/25 12:50:03;;;;;;;16.23;12.63;;;12.20;99.90;;;;;;4964649;28;20034;-81
2022/04/25 12:52:51;;;;;;;18.08;12.13;;;12.10;99.90;;;;;;4964928;28;20034;-80
2022/04/25 12:55:52;;;;;;;21.58;13.02;;;12.00;99.90;;;;;;4951903;28;20030;-80
2022/04/25 12:58:53;;;;;;;19.20;12.57;;;12.00;99.90;;;;;;4969250;28;20049;-80
2022/04/25 13:01:34;;;;;;;18.10;12.88;;;11.90;99.90;;;;;;4956026;28;20061;-80
2022/04/25 13:04:13;;;;;;;19.05;13.48;;;11.90;99.90;;;;;;4950633;28;20035;-80
2022/04/25 13:06:44;;;;;;;17.83;12.85;;;11.90;99.90;;;;;;4969024;28;20042;-80
2022/04/25 13:09:12;;;;;;;21.52;13.20;;;11.90;99.90;;;;;;4969659;28;20030;-80
2022/04/25 13:11:44;;;;;;;18.50;11.90;;;11.90;99.90;;;;;;4974821;28;20475;-80
2022/04/25 13:14:14;;;;;;;20.15;14.40;;;11.80;99.90;;;;;;4984672;28;20034;-79
2022/04/25 13:16:41;;;;;;;18.48;13.07;;;11.90;99.90;;;;;;4962121;28;20026;-80
2022/04/25 13:19:08;;;;;;;19.85;12.40;;;11.90;99.90;;;;;;4942282;28;20340;-83
2022/04/25 13:21:41;;;;;;;18.05;12.75;;;11.90;99.90;;;;;;4909924;28;20026;-82
2022/04/25 13:24:07;;;;;;;16.25;12.07;;;12.00;99.90;;;;;;4930211;28;20035;-81
2022/04/25 13:26:33;;;;;;;16.30;11.55;;;12.10;99.90;;;;;;4944741;28;20023;-79
2022/04/25 13:29:00;;;;;;;38.50;24.20;;;12.10;99.90;;;;;;4920442;28;20046;-81
2022/04/25 13:31:26;;;;;;;27.85;18.90;;;12.10;99.90;;;;;;4931336;28;20034;-79
2022/04/25 13:33:53;;;;;;;21.15;15.18;;;12.10;99.90;;;;;;4933319;28;20585;-81
2022/04/25 13:36:19;;;;;;;18.17;13.50;;;12.10;99.90;;;;;;4928821;28;20141;-83
2022/04/25 13:38:48;;;;;;;17.80;13.88;;;12.10;99.90;;;;;;4939616;28;20042;-81
2022/04/25 13:41:18;;;;;;;19.50;12.68;;;12.20;99.90;;;;;;4956999;28;20035;-80
2022/04/25 13:43:45;;;;;;;16.67;11.95;;;12.20;99.90;;;;;;4941238;28;20033;-79
2022/04/25 13:46:11;;;;;;;16.95;11.00;;;12.30;99.90;;;;;;4932346;28;20019;-82
2022/04/25 13:48:38;;;;;;;16.45;12.05;;;12.30;99.90;;;;;;4919319;28;20390;-82
2022/04/25 13:51:07;;;;;;;15.73;11.48;;;12.40;99.90;;;;;;4954450;28;20031;-82
2022/04/25 13:53:34;;;;;;;19.17;13.18;;;12.40;99.90;;;;;;4951770;28;20384;-81
2022/04/25 13:56:03;;;;;;;15.80;11.75;;;12.40;99.90;;;;;;4932089;28;20078;-82
2022/04/25 13:58:34;;;;;;;17.02;12.20;;;12.50;99.90;;;;;;4960796;28;20041;-82
2022/04/25 14:01:00;;;;;;;22.48;12.93;;;12.70;99.90;;;;;;4957164;28;20063;-82
2022/04/25 14:03:27;;;;;;;15.85;10.88;;;12.90;99.90;;;;;;4941405;28;20533;-82
2022/04/25 14:05:54;;;;;;;18.40;10.98;;;13.10;99.90;;;;;;4955986;28;20475;-81
2022/04/25 14:08:21;;;;;;;17.52;11.38;;;13.40;99.90;;;;;;4958028;28;20042;-82
2022/04/25 14:10:47;;;;;;;12.63;10.13;;;13.50;99.90;;;;;;4956047;28;20038;-83